sensor_id;sensor_type;location;lat;lon;timestamp;pressure;altitude;pressure_sealevel;temperature;humidity
44751;BME280;30477;48.224;11.470;2023-03-01T00:01:55;96626.28;;;0.42;66.84
44751;BME280;30477;48.224;11.470;2023-03-01T00:04:20;96621.94;;;0.44;66.81
44751;BME280;30477;48.224;11.470;2023-03-01T00:06:46;96621.19;;;0.42;66.80
44751;BME280;30477;48.224;11.470;2023-03-01T00:09:13;96620.34;;;0.41;66.81
44751;BME280;30477;48.224;11.470;2023-03-01T00:11:38;96612.53;;;0.46;66.88
44751;BME280;30477;48.224;11.470;2023-03-01T00:14:04;96611.75;;;0.44;66.95
44751;BME280;30477;48.224;11.470;2023-03-01T00:16:35;96613.44;;;0.45;66.94
44751;BME280;30477;48.224;11.470;2023-03-01T00:19:02;96614.31;;;0.44;67.12
44751;BME280;30477;48.224;11.470;2023-03-01T00:21:27;96611.91;;;0.40;66.84
44751;BME280;30477;48.224;11.470;2023-03-01T00:23:53;96606.81;;;0.40;66.92
44751;BME280;30477;48.224;11.470;2023-03-01T00:26:21;96614.44;;;0.40;66.76
44751;BME280;30477;48.224;11.470;2023-03-01T00:28:46;96609.34;;;0.40;66.81
44751;BME280;30477;48.224;11.470;2023-03-01T00:31:15;96604.88;;;0.46;66.94
44751;BME280;30477;48.224;11.470;2023-03-01T00:33:41;96608.53;;;0.40;66.72
44751;BME280;30477;48.224;11.470;2023-03-01T00:36:07;96603.56;;;0.37;66.71
44751;BME280;30477;48.224;11.470;2023-03-01T00:38:43;96605.34;;;0.35;66.77
44751;BME280;30477;48.224;11.470;2023-03-01T00:41:14;96597.50;;;0.39;66.81
44751;BME280;30477;48.224;11.470;2023-03-01T00:43:40;96590.75;;;0.38;66.82
44751;BME280;30477;48.224;11.470;2023-03-01T00:46:07;96594.84;;;0.43;66.88
44751;BME280;30477;48.224;11.470;2023-03-01T00:48:35;96587.31;;;0.39;66.80
44751;BME280;30477;48.224;11.470;2023-03-01T00:51:20;96589.81;;;0.41;66.85
44751;BME280;30477;48.224;11.470;2023-03-01T00:53:47;96593.25;;;0.40;66.86
44751;BME280;30477;48.224;11.470;2023-03-01T00:56:13;96586.56;;;0.37;66.80
44751;BME280;30477;48.224;11.470;2023-03-01T00:58:39;96584.16;;;0.34;66.84
44751;BME280;30477;48.224;11.470;2023-03-01T01:01:13;96586.91;;;0.30;66.83
44751;BME280;30477;48.224;11.470;2023-03-01T01:03:51;96579.25;;;0.30;66.87
44751;BME280;30477;48.224;11.470;2023-03-01T01:06:25;96585.97;;;0.31;66.86
44751;BME280;30477;48.224;11.470;2023-03-01T01:08:52;96571.63;;;0.30;66.89
44751;BME280;30477;48.224;11.470;2023-03-01T01:11:19;96563.88;;;0.31;66.98
44751;BME280;30477;48.224;11.470;2023-03-01T01:13:46;96559.72;;;0.30;66.80
44751;BME280;30477;48.224;11.470;2023-03-01T01:16:12;96555.44;;;0.31;66.87
44751;BME280;30477;48.224;11.470;2023-03-01T01:18:38;96558.94;;;0.28;66.84
44751;BME280;30477;48.224;11.470;2023-03-01T01:21:08;96563.38;;;0.23;66.83
44751;BME280;30477;48.224;11.470;2023-03-01T01:23:33;96558.19;;;0.26;66.92
44751;BME280;30477;48.224;11.470;2023-03-01T01:26:15;96552.31;;;0.24;66.86
44751;BME280;30477;48.224;11.470;2023-03-01T01:28:41;96555.63;;;0.26;67.14
44751;BME280;30477;48.224;11.470;2023-03-01T01:31:07;96541.22;;;0.25;67.03
44751;BME280;30477;48.224;11.470;2023-03-01T01:33:33;96543.66;;;0.28;67.05
44751;BME280;30477;48.224;11.470;2023-03-01T01:35:58;96543.09;;;0.22;67.11
44751;BME280;30477;48.224;11.470;2023-03-01T01:38:24;96543.78;;;0.25;67.21
44751;BME280;30477;48.224;11.470;2023-03-01T01:40:50;96545.41;;;0.28;67.14
44751;BME280;30477;48.224;11.470;2023-03-01T01:43:38;96539.41;;;0.29;67.13
44751;BME280;30477;48.224;11.470;2023-03-01T01:46:19;96539.28;;;0.32;67.22
44751;BME280;30477;48.224;11.470;2023-03-01T01:48:50;96537.66;;;0.29;67.25
44751;BME280;30477;48.224;11.470;2023-03-01T01:51:25;96537.88;;;0.25;66.75
44751;BME280;30477;48.224;11.470;2023-03-01T01:53:56;96538.13;;;0.18;67.16
44751;BME280;30477;48.224;11.470;2023-03-01T01:56:24;96536.28;;;0.22;67.44
44751;BME280;30477;48.224;11.470;2023-03-01T01:58:51;96526.06;;;0.24;67.19
44751;BME280;30477;48.224;11.470;2023-03-01T02:01:17;96527.69;;;0.25;67.34
44751;BME280;30477;48.224;11.470;2023-03-01T02:03:44;96528.59;;;0.24;67.35
44751;BME280;30477;48.224;11.470;2023-03-01T02:08:41;96524.31;;;0.24;67.42
44751;BME280;30477;48.224;11.470;2023-03-01T02:11:08;96516.63;;;0.26;67.20
44751;BME280;30477;48.224;11.470;2023-03-01T02:13:35;96509.94;;;0.23;67.20
44751;BME280;30477;48.224;11.470;2023-03-01T02:16:08;96515.97;;;0.20;67.22
44751;BME280;30477;48.224;11.470;2023-03-01T02:18:33;96511.75;;;0.21;67.22
44751;BME280;30477;48.224;11.470;2023-03-01T02:23:30;96515.31;;;0.17;67.21
44751;BME280;30477;48.224;11.470;2023-03-01T02:26:34;96518.72;;;0.16;67.14
44751;BME280;30477;48.224;11.470;2023-03-01T02:28:51;96504.47;;;0.12;67.30
44751;BME280;30477;48.224;11.470;2023-03-01T02:31:18;96510.22;;;0.17;67.27
44751;BME280;30477;48.224;11.470;2023-03-01T02:34:04;96508.53;;;0.16;67.06
44751;BME280;30477;48.224;11.470;2023-03-01T02:36:35;96503.50;;;0.14;67.24
44751;BME280;30477;48.224;11.470;2023-03-01T02:39:04;96495.06;;;0.14;67.29
44751;BME280;30477;48.224;11.470;2023-03-01T02:41:35;96495.97;;;0.13;67.26
44751;BME280;30477;48.224;11.470;2023-03-01T02:44:03;96507.03;;;0.12;67.18
44751;BME280;30477;48.224;11.470;2023-03-01T02:46:28;96496.06;;;0.10;67.27
44751;BME280;30477;48.224;11.470;2023-03-01T02:48:56;96497.09;;;0.06;67.39
44751;BME280;30477;48.224;11.470;2023-03-01T02:54:29;96493.78;;;0.04;66.76
44751;BME280;30477;48.224;11.470;2023-03-01T02:56:57;96493.84;;;0.02;66.77
44751;BME280;30477;48.224;11.470;2023-03-01T02:59:26;96487.69;;;0.08;66.77
44751;BME280;30477;48.224;11.470;2023-03-01T03:01:52;96493.78;;;0.04;66.49
44751;BME280;30477;48.224;11.470;2023-03-01T03:04:18;96489.66;;;0.01;66.59
44751;BME280;30477;48.224;11.470;2023-03-01T03:06:45;96499.03;;;0.01;66.45
44751;BME280;30477;48.224;11.470;2023-03-01T03:09:11;96497.50;;;-0.04;66.09
44751;BME280;30477;48.224;11.470;2023-03-01T03:11:36;96490.75;;;-0.05;66.10
44751;BME280;30477;48.224;11.470;2023-03-01T03:14:02;96494.06;;;-0.03;66.13
44751;BME280;30477;48.224;11.470;2023-03-01T03:16:27;96494.91;;;-0.02;66.05
44751;BME280;30477;48.224;11.470;2023-03-01T03:18:54;96497.50;;;-0.04;65.93
44751;BME280;30477;48.224;11.470;2023-03-01T03:21:20;96501.81;;;-0.06;65.97
44751;BME280;30477;48.224;11.470;2023-03-01T03:23:45;96494.19;;;-0.06;65.98
44751;BME280;30477;48.224;11.470;2023-03-01T03:26:11;96495.97;;;-0.08;66.11
44751;BME280;30477;48.224;11.470;2023-03-01T03:28:38;96496.84;;;-0.09;66.06
44751;BME280;30477;48.224;11.470;2023-03-01T03:31:06;96494.44;;;-0.12;66.24
44751;BME280;30477;48.224;11.470;2023-03-01T03:33:32;96494.25;;;-0.07;66.41
44751;BME280;30477;48.224;11.470;2023-03-01T03:35:58;96494.56;;;-0.15;66.13
44751;BME280;30477;48.224;11.470;2023-03-01T03:38:24;96491.25;;;-0.17;66.17
44751;BME280;30477;48.224;11.470;2023-03-01T03:40:52;96474.34;;;-0.18;66.49
44751;BME280;30477;48.224;11.470;2023-03-01T03:43:22;96486.94;;;-0.15;66.58
44751;BME280;30477;48.224;11.470;2023-03-01T03:45:49;96485.28;;;-0.16;66.49
44751;BME280;30477;48.224;11.470;2023-03-01T03:48:16;96482.81;;;-0.17;66.39
44751;BME280;30477;48.224;11.470;2023-03-01T03:50:41;96480.31;;;-0.19;66.63
44751;BME280;30477;48.224;11.470;2023-03-01T03:53:10;96474.47;;;-0.21;66.70
44751;BME280;30477;48.224;11.470;2023-03-01T03:55:36;96479.44;;;-0.18;66.72
44751;BME280;30477;48.224;11.470;2023-03-01T03:58:05;96473.53;;;-0.18;66.66
44751;BME280;30477;48.224;11.470;2023-03-01T04:00:39;96477.91;;;-0.22;66.86
44751;BME280;30477;48.224;11.470;2023-03-01T04:03:05;96467.88;;;-0.25;66.91
44751;BME280;30477;48.224;11.470;2023-03-01T04:05:31;96464.56;;;-0.27;66.77
44751;BME280;30477;48.224;11.470;2023-03-01T04:07:57;96464.56;;;-0.27;66.92
44751;BME280;30477;48.224;11.470;2023-03-01T04:10:31;96458.84;;;-0.32;66.73
44751;BME280;30477;48.224;11.470;2023-03-01T04:12:57;96452.97;;;-0.34;66.88
44751;BME280;30477;48.224;11.470;2023-03-01T04:15:24;96460.00;;;-0.39;66.85
44751;BME280;30477;48.224;11.470;2023-03-01T04:17:50;96460.81;;;-0.39;67.04
44751;BME280;30477;48.224;11.470;2023-03-01T04:20:20;96455.78;;;-0.41;67.02
44751;BME280;30477;48.224;11.470;2023-03-01T04:22:56;96465.19;;;-0.43;66.98
44751;BME280;30477;48.224;11.470;2023-03-01T04:25:33;96462.25;;;-0.54;66.77
44751;BME280;30477;48.224;11.470;2023-03-01T04:27:58;96464.84;;;-0.55;66.96
44751;BME280;30477;48.224;11.470;2023-03-01T04:30:24;96470.09;;;-0.58;66.91
44751;BME280;30477;48.224;11.470;2023-03-01T04:32:50;96464.91;;;-0.57;67.10
44751;BME280;30477;48.224;11.470;2023-03-01T04:35:15;96464.28;;;-0.62;66.86
44751;BME280;30477;48.224;11.470;2023-03-01T04:37:41;96472.22;;;-0.70;66.92
44751;BME280;30477;48.224;11.470;2023-03-01T04:40:07;96470.63;;;-0.72;66.97
44751;BME280;30477;48.224;11.470;2023-03-01T04:42:38;96469.03;;;-0.75;67.08
44751;BME280;30477;48.224;11.470;2023-03-01T04:45:04;96465.78;;;-0.78;66.91
44751;BME280;30477;48.224;11.470;2023-03-01T04:47:40;96466.59;;;-0.78;67.18
44751;BME280;30477;48.224;11.470;2023-03-01T04:50:07;96467.44;;;-0.77;67.18
44751;BME280;30477;48.224;11.470;2023-03-01T04:52:33;96469.22;;;-0.79;67.07
44751;BME280;30477;48.224;11.470;2023-03-01T04:54:58;96466.03;;;-0.85;67.34
44751;BME280;30477;48.224;11.470;2023-03-01T04:57:23;96455.47;;;-0.96;67.31
44751;BME280;30477;48.224;11.470;2023-03-01T04:59:49;96464.09;;;-1.00;67.54
44751;BME280;30477;48.224;11.470;2023-03-01T05:02:14;96453.38;;;-1.08;67.64
44751;BME280;30477;48.224;11.470;2023-03-01T05:04:39;96454.41;;;-1.12;67.72
44751;BME280;30477;48.224;11.470;2023-03-01T05:07:04;96452.75;;;-1.13;67.84
44751;BME280;30477;48.224;11.470;2023-03-01T05:09:30;96457.75;;;-1.12;67.70
44751;BME280;30477;48.224;11.470;2023-03-01T05:11:55;96443.47;;;-1.14;67.83
44751;BME280;30477;48.224;11.470;2023-03-01T05:14:20;96441.28;;;-1.24;67.91
44751;BME280;30477;48.224;11.470;2023-03-01T05:16:46;96441.28;;;-1.24;68.08
44751;BME280;30477;48.224;11.470;2023-03-01T05:19:12;96445.75;;;-1.30;68.13
44751;BME280;30477;48.224;11.470;2023-03-01T05:21:41;96439.75;;;-1.28;68.23
44751;BME280;30477;48.224;11.470;2023-03-01T05:24:27;96438.81;;;-1.25;68.22
44751;BME280;30477;48.224;11.470;2023-03-01T05:26:52;96457.56;;;-1.29;68.24
44751;BME280;30477;48.224;11.470;2023-03-01T05:29:19;96446.69;;;-1.33;68.37
44751;BME280;30477;48.224;11.470;2023-03-01T05:31:51;96442.47;;;-1.32;68.42
44751;BME280;30477;48.224;11.470;2023-03-01T05:34:17;96444.16;;;-1.33;68.44
44751;BME280;30477;48.224;11.470;2023-03-01T05:36:42;96451.78;;;-1.33;68.41
44751;BME280;30477;48.224;11.470;2023-03-01T05:39:08;96441.84;;;-1.39;68.74
44751;BME280;30477;48.224;11.470;2023-03-01T05:41:33;96443.41;;;-1.35;68.80
44751;BME280;30477;48.224;11.470;2023-03-01T05:43:58;96448.38;;;-1.32;68.74
44751;BME280;30477;48.224;11.470;2023-03-01T05:46:23;96441.44;;;-1.28;68.86
44751;BME280;30477;48.224;11.470;2023-03-01T05:48:49;96438.91;;;-1.28;68.72
44751;BME280;30477;48.224;11.470;2023-03-01T05:51:14;96447.41;;;-1.29;68.89
44751;BME280;30477;48.224;11.470;2023-03-01T05:53:40;96444.06;;;-1.30;68.87
44751;BME280;30477;48.224;11.470;2023-03-01T05:56:05;96438.44;;;-1.38;68.94
44751;BME280;30477;48.224;11.470;2023-03-01T05:58:31;96445.06;;;-1.34;68.99
44751;BME280;30477;48.224;11.470;2023-03-01T06:00:57;96443.41;;;-1.35;69.13
44751;BME280;30477;48.224;11.470;2023-03-01T06:03:22;96440.84;;;-1.35;68.95
44751;BME280;30477;48.224;11.470;2023-03-01T06:05:48;96437.44;;;-1.34;68.94
44751;BME280;30477;48.224;11.470;2023-03-01T06:08:13;96437.97;;;-1.26;68.98
44751;BME280;30477;48.224;11.470;2023-03-01T06:10:39;96448.97;;;-1.25;68.89
44751;BME280;30477;48.224;11.470;2023-03-01T06:13:04;96447.38;;;-1.28;68.52
44751;BME280;30477;48.224;11.470;2023-03-01T06:15:30;96453.22;;;-1.26;68.79
44751;BME280;30477;48.224;11.470;2023-03-01T06:17:56;96451.69;;;-1.30;68.66
44751;BME280;30477;48.224;11.470;2023-03-01T06:20:24;96449.41;;;-1.37;68.76
44751;BME280;30477;48.224;11.470;2023-03-01T06:22:50;96451.78;;;-1.33;68.78
44751;BME280;30477;48.224;11.470;2023-03-01T06:25:23;96453.31;;;-1.29;68.85
44751;BME280;30477;48.224;11.470;2023-03-01T06:27:49;96462.53;;;-1.26;68.69
44751;BME280;30477;48.224;11.470;2023-03-01T06:30:16;96453.22;;;-1.26;68.61
44751;BME280;30477;48.224;11.470;2023-03-01T06:32:42;96454.75;;;-1.21;68.59
44751;BME280;30477;48.224;11.470;2023-03-01T06:35:13;96464.16;;;-1.24;68.49
44751;BME280;30477;48.224;11.470;2023-03-01T06:37:39;96465.00;;;-1.25;68.46
44751;BME280;30477;48.224;11.470;2023-03-01T06:40:06;96463.25;;;-1.23;68.41
44751;BME280;30477;48.224;11.470;2023-03-01T06:42:37;96463.38;;;-1.26;68.38
44751;BME280;30477;48.224;11.470;2023-03-01T06:45:04;96470.22;;;-1.28;68.16
44751;BME280;30477;48.224;11.470;2023-03-01T06:47:30;96461.84;;;-1.30;68.14
44751;BME280;30477;48.224;11.470;2023-03-01T06:49:56;96461.72;;;-1.27;68.18
44751;BME280;30477;48.224;11.470;2023-03-01T06:52:21;96459.13;;;-1.25;67.72
44751;BME280;30477;48.224;11.470;2023-03-01T06:54:47;96458.53;;;-1.32;67.61
44751;BME280;30477;48.224;11.470;2023-03-01T06:57:12;96467.78;;;-1.31;67.67
44751;BME280;30477;48.224;11.470;2023-03-01T06:59:37;96463.38;;;-1.26;67.75
44751;BME280;30477;48.224;11.470;2023-03-01T07:02:03;96465.16;;;-1.28;67.75
44751;BME280;30477;48.224;11.470;2023-03-01T07:04:28;96456.56;;;-1.25;67.61
44751;BME280;30477;48.224;11.470;2023-03-01T07:06:55;96454.09;;;-1.27;67.42
44751;BME280;30477;48.224;11.470;2023-03-01T07:09:24;96455.09;;;-1.31;67.19
44751;BME280;30477;48.224;11.470;2023-03-01T07:11:49;96451.56;;;-1.27;67.32
44751;BME280;30477;48.224;11.470;2023-03-01T07:14:15;96455.69;;;-1.24;67.38
44751;BME280;30477;48.224;11.470;2023-03-01T07:16:41;96456.63;;;-1.27;67.41
44751;BME280;30477;48.224;11.470;2023-03-01T07:19:06;96454.03;;;-1.25;67.49
44751;BME280;30477;48.224;11.470;2023-03-01T07:21:31;96457.94;;;-1.16;67.74
44751;BME280;30477;48.224;11.470;2023-03-01T07:23:57;96448.72;;;-1.19;67.39
44751;BME280;30477;48.224;11.470;2023-03-01T07:26:22;96447.00;;;-1.18;67.41
44751;BME280;30477;48.224;11.470;2023-03-01T07:28:48;96435.84;;;-1.14;67.44
44751;BME280;30477;48.224;11.470;2023-03-01T07:31:14;96440.97;;;-1.16;67.56
44751;BME280;30477;48.224;11.470;2023-03-01T07:33:39;96438.44;;;-1.16;67.66
44751;BME280;30477;48.224;11.470;2023-03-01T07:36:05;96435.75;;;-1.11;67.39
44751;BME280;30477;48.224;11.470;2023-03-01T07:38:31;96434.22;;;-1.15;67.54
44751;BME280;30477;48.224;11.470;2023-03-01T07:41:01;96428.84;;;-1.09;67.30
44751;BME280;30477;48.224;11.470;2023-03-01T07:43:30;96430.66;;;-1.11;67.43
44751;BME280;30477;48.224;11.470;2023-03-01T07:45:59;96429.63;;;-1.07;67.35
44751;BME280;30477;48.224;11.470;2023-03-01T07:48:25;96433.03;;;-1.07;67.17
44751;BME280;30477;48.224;11.470;2023-03-01T07:50:51;96427.75;;;-1.02;67.02
44751;BME280;30477;48.224;11.470;2023-03-01T07:53:16;96424.06;;;-0.95;66.98
44751;BME280;30477;48.224;11.470;2023-03-01T07:55:42;96425.22;;;-1.02;66.44
44751;BME280;30477;48.224;11.470;2023-03-01T07:58:07;96426.03;;;-1.02;66.51
44751;BME280;30477;48.224;11.470;2023-03-01T08:00:33;96432.59;;;-0.96;66.44
44751;BME280;30477;48.224;11.470;2023-03-01T08:02:59;96442.19;;;-1.03;66.24
44751;BME280;30477;48.224;11.470;2023-03-01T08:05:26;96426.97;;;-1.04;66.35
44751;BME280;30477;48.224;11.470;2023-03-01T08:07:51;96430.16;;;-0.99;66.21
44751;BME280;30477;48.224;11.470;2023-03-01T08:10:17;96425.06;;;-0.99;65.99
44751;BME280;30477;48.224;11.470;2023-03-01T08:12:42;96419.88;;;-0.96;66.15
44751;BME280;30477;48.224;11.470;2023-03-01T08:15:08;96425.75;;;-0.94;66.01
44751;BME280;30477;48.224;11.470;2023-03-01T08:17:33;96417.16;;;-0.91;65.92
44751;BME280;30477;48.224;11.470;2023-03-01T08:19:59;96416.09;;;-0.86;65.93
44751;BME280;30477;48.224;11.470;2023-03-01T08:22:24;96419.66;;;-0.90;65.79
44751;BME280;30477;48.224;11.470;2023-03-01T08:24:49;96414.44;;;-0.87;65.95
44751;BME280;30477;48.224;11.470;2023-03-01T08:27:16;96421.75;;;-0.79;65.62
44751;BME280;30477;48.224;11.470;2023-03-01T08:29:42;96426.13;;;-0.83;65.46
44751;BME280;30477;48.224;11.470;2023-03-01T08:32:07;96414.31;;;-0.84;65.53
44751;BME280;30477;48.224;11.470;2023-03-01T08:34:32;96413.41;;;-0.83;65.44
44751;BME280;30477;48.224;11.470;2023-03-01T08:37:00;96419.28;;;-0.80;65.46
44751;BME280;30477;48.224;11.470;2023-03-01T08:39:26;96418.25;;;-0.76;65.47
44751;BME280;30477;48.224;11.470;2023-03-01T08:41:52;96418.16;;;-0.73;65.18
44751;BME280;30477;48.224;11.470;2023-03-01T08:44:17;96414.75;;;-0.74;65.32
44751;BME280;30477;48.224;11.470;2023-03-01T08:46:43;96401.75;;;-0.66;65.21
44751;BME280;30477;48.224;11.470;2023-03-01T08:49:16;96395.44;;;-0.57;65.23
44751;BME280;30477;48.224;11.470;2023-03-01T08:51:43;96405.16;;;-0.47;64.93
44751;BME280;30477;48.224;11.470;2023-03-01T08:54:19;96393.97;;;-0.43;65.00
44751;BME280;30477;48.224;11.470;2023-03-01T08:56:45;96398.97;;;-0.39;65.05
44751;BME280;30477;48.224;11.470;2023-03-01T08:59:11;96401.56;;;-0.41;64.74
44751;BME280;30477;48.224;11.470;2023-03-01T09:01:37;96397.44;;;-0.44;64.74
44751;BME280;30477;48.224;11.470;2023-03-01T09:04:03;96393.72;;;-0.36;64.82
44751;BME280;30477;48.224;11.470;2023-03-01T09:06:33;96387.00;;;-0.37;64.52
44751;BME280;30477;48.224;11.470;2023-03-01T09:08:59;96389.72;;;-0.42;64.65
44751;BME280;30477;48.224;11.470;2023-03-01T09:11:24;96393.63;;;-0.33;64.62
44751;BME280;30477;48.224;11.470;2023-03-01T09:13:50;96391.06;;;-0.33;64.76
44751;BME280;30477;48.224;11.470;2023-03-01T09:16:18;96398.56;;;-0.30;64.58
44751;BME280;30477;48.224;11.470;2023-03-01T09:18:45;96401.16;;;-0.32;64.75
44751;BME280;30477;48.224;11.470;2023-03-01T09:21:11;96388.19;;;-0.26;64.59
44751;BME280;30477;48.224;11.470;2023-03-01T09:23:38;96391.56;;;-0.25;64.62
44751;BME280;30477;48.224;11.470;2023-03-01T09:26:16;96394.72;;;-0.20;64.67
44751;BME280;30477;48.224;11.470;2023-03-01T09:28:45;96390.72;;;-0.26;64.60
44751;BME280;30477;48.224;11.470;2023-03-01T09:31:11;96392.50;;;-0.28;64.73
44751;BME280;30477;48.224;11.470;2023-03-01T09:33:41;96389.28;;;-0.31;64.63
44751;BME280;30477;48.224;11.470;2023-03-01T09:36:12;96393.06;;;-0.21;65.15
44751;BME280;30477;48.224;11.470;2023-03-01T09:38:37;96382.56;;;-0.13;65.16
44751;BME280;30477;48.224;11.470;2023-03-01T09:41:09;96378.19;;;-0.10;65.44
44751;BME280;30477;48.224;11.470;2023-03-01T09:43:47;96380.31;;;-0.01;65.51
44751;BME280;30477;48.224;11.470;2023-03-01T09:46:19;96387.06;;;0.01;65.14
44751;BME280;30477;48.224;11.470;2023-03-01T09:48:52;96383.75;;;-0.02;65.22
44751;BME280;30477;48.224;11.470;2023-03-01T09:51:27;96378.53;;;0.02;64.61
44751;BME280;30477;48.224;11.470;2023-03-01T09:53:55;96375.22;;;-0.01;64.90
44751;BME280;30477;48.224;11.470;2023-03-01T09:56:30;96379.28;;;0.04;64.72
44751;BME280;30477;48.224;11.470;2023-03-01T10:04:51;96371.09;;;0.16;64.47
44751;BME280;30477;48.224;11.470;2023-03-01T10:07:50;96353.72;;;0.26;64.47
44751;BME280;30477;48.224;11.470;2023-03-01T10:10:43;96355.19;;;0.49;64.05
44751;BME280;30477;48.224;11.470;2023-03-01T10:15:56;96346.44;;;0.54;63.48
44751;BME280;30477;48.224;11.470;2023-03-01T10:18:30;96340.81;;;0.48;62.94
44751;BME280;30477;48.224;11.470;2023-03-01T10:21:19;96344.66;;;0.37;62.90
44751;BME280;30477;48.224;11.470;2023-03-01T10:23:46;96347.69;;;0.46;62.76
44751;BME280;30477;48.224;11.470;2023-03-01T10:34:30;96340.22;;;0.60;61.95
44751;BME280;30477;48.224;11.470;2023-03-01T10:37:01;96340.84;;;0.65;62.33
44751;BME280;30477;48.224;11.470;2023-03-01T10:39:33;96338.16;;;0.86;62.55
44751;BME280;30477;48.224;11.470;2023-03-01T10:42:02;96339.13;;;1.00;61.87
44751;BME280;30477;48.224;11.470;2023-03-01T10:44:42;96354.44;;;1.00;61.79
44751;BME280;30477;48.224;11.470;2023-03-01T10:47:21;96347.88;;;0.77;61.65
44751;BME280;30477;48.224;11.470;2023-03-01T10:50:02;96348.75;;;0.78;62.02
44751;BME280;30477;48.224;11.470;2023-03-01T10:52:35;96330.59;;;1.01;61.63
44751;BME280;30477;48.224;11.470;2023-03-01T10:57:41;96320.22;;;1.39;61.23
44751;BME280;30477;48.224;11.470;2023-03-01T11:07:51;96289.34;;;1.61;60.35
44751;BME280;30477;48.224;11.470;2023-03-01T11:10:24;96290.84;;;1.81;60.02
44751;BME280;30477;48.224;11.470;2023-03-01T11:12:53;96279.66;;;1.84;60.05
44751;BME280;30477;48.224;11.470;2023-03-01T11:15:30;96269.47;;;2.00;60.57
44751;BME280;30477;48.224;11.470;2023-03-01T11:17:56;96269.13;;;2.22;59.94
44751;BME280;30477;48.224;11.470;2023-03-01T11:20:29;96260.97;;;2.31;59.32
44751;BME280;30477;48.224;11.470;2023-03-01T11:23:12;96255.75;;;2.49;59.56
44751;BME280;30477;48.224;11.470;2023-03-01T11:25:41;96246.47;;;2.62;59.43
44751;BME280;30477;48.224;11.470;2023-03-01T11:28:12;96241.59;;;2.73;58.96
44751;BME280;30477;48.224;11.470;2023-03-01T11:33:34;96236.38;;;2.75;58.45
44751;BME280;30477;48.224;11.470;2023-03-01T11:36:05;96254.25;;;2.60;57.98
44751;BME280;30477;48.224;11.470;2023-03-01T11:38:35;96237.84;;;2.49;58.46
44751;BME280;30477;48.224;11.470;2023-03-01T11:41:08;96249.63;;;2.51;58.34
44751;BME280;30477;48.224;11.470;2023-03-01T11:43:53;96220.78;;;2.49;58.46
44751;BME280;30477;48.224;11.470;2023-03-01T11:49:13;96211.75;;;2.88;58.39
44751;BME280;30477;48.224;11.470;2023-03-01T11:52:08;96218.34;;;2.92;57.72
44751;BME280;30477;48.224;11.470;2023-03-01T12:03:27;96201.09;;;3.10;58.02
44751;BME280;30477;48.224;11.470;2023-03-01T12:17:06;96191.03;;;3.36;58.21
44751;BME280;30477;48.224;11.470;2023-03-01T12:20:05;96183.34;;;3.50;57.97
44751;BME280;30477;48.224;11.470;2023-03-01T12:41:38;96174.41;;;3.29;57.68
44751;BME280;30477;48.224;11.470;2023-03-01T12:47:31;96147.88;;;3.58;58.50
44751;BME280;30477;48.224;11.470;2023-03-01T12:50:05;96146.06;;;3.46;57.79
44751;BME280;30477;48.224;11.470;2023-03-01T12:52:43;96142.41;;;3.50;57.99
44751;BME280;30477;48.224;11.470;2023-03-01T12:55:41;96164.16;;;3.57;58.05
44751;BME280;30477;48.224;11.470;2023-03-01T13:01:32;96157.81;;;3.63;57.84
44751;BME280;30477;48.224;11.470;2023-03-01T13:31:08;96147.31;;;3.95;58.01
44751;BME280;30477;48.224;11.470;2023-03-01T13:36:06;96159.16;;;4.10;57.85
44751;BME280;30477;48.224;11.470;2023-03-01T13:44:20;96136.41;;;4.05;58.14
44751;BME280;30477;48.224;11.470;2023-03-01T13:46:47;96129.63;;;4.04;57.93
44751;BME280;30477;48.224;11.470;2023-03-01T13:49:16;96128.00;;;4.03;57.91
44751;BME280;30477;48.224;11.470;2023-03-01T13:51:46;96117.44;;;4.08;58.10
44751;BME280;30477;48.224;11.470;2023-03-01T13:54:12;96132.00;;;4.07;58.14
44751;BME280;30477;48.224;11.470;2023-03-01T13:56:40;96129.94;;;4.13;58.26
44751;BME280;30477;48.224;11.470;2023-03-01T13:59:13;96139.91;;;4.17;58.31
44751;BME280;30477;48.224;11.470;2023-03-01T14:01:39;96133.75;;;4.20;58.14
44751;BME280;30477;48.224;11.470;2023-03-01T14:04:23;96125.16;;;4.21;58.34
44751;BME280;30477;48.224;11.470;2023-03-01T14:06:50;96127.81;;;4.19;58.10
44751;BME280;30477;48.224;11.470;2023-03-01T14:14:34;96111.94;;;4.27;58.75
44751;BME280;30477;48.224;11.470;2023-03-01T14:20:09;96118.31;;;4.34;58.13
44751;BME280;30477;48.224;11.470;2023-03-01T14:22:36;96106.94;;;4.38;58.40
44751;BME280;30477;48.224;11.470;2023-03-01T14:25:05;96100.28;;;4.36;58.25
44751;BME280;30477;48.224;11.470;2023-03-01T14:27:39;96105.81;;;4.42;58.34
44751;BME280;30477;48.224;11.470;2023-03-01T14:30:15;96095.97;;;4.49;58.48
44751;BME280;30477;48.224;11.470;2023-03-01T14:32:42;96098.66;;;4.47;57.98
44751;BME280;30477;48.224;11.470;2023-03-01T14:35:29;96091.06;;;4.46;58.09
44751;BME280;30477;48.224;11.470;2023-03-01T14:37:55;96087.28;;;4.52;58.33
44751;BME280;30477;48.224;11.470;2023-03-01T14:42:52;96067.91;;;4.60;58.47
44751;BME280;30477;48.224;11.470;2023-03-01T14:45:18;96075.28;;;4.65;58.34
44751;BME280;30477;48.224;11.470;2023-03-01T14:47:43;96066.88;;;4.63;57.89
44751;BME280;30477;48.224;11.470;2023-03-01T14:50:22;96058.94;;;4.66;58.04
44751;BME280;30477;48.224;11.470;2023-03-01T14:52:51;96058.16;;;4.65;58.05
44751;BME280;30477;48.224;11.470;2023-03-01T14:55:44;96067.06;;;4.73;58.35
44751;BME280;30477;48.224;11.470;2023-03-01T14:58:18;96064.19;;;4.77;58.30
44751;BME280;30477;48.224;11.470;2023-03-01T15:01:04;96070.63;;;4.83;58.72
44751;BME280;30477;48.224;11.470;2023-03-01T15:04:03;96067.66;;;4.89;58.73
44751;BME280;30477;48.224;11.470;2023-03-01T15:06:22;96065.31;;;4.86;58.80
44751;BME280;30477;48.224;11.470;2023-03-01T15:08:51;96053.53;;;4.83;58.88
44751;BME280;30477;48.224;11.470;2023-03-01T15:11:31;96060.09;;;4.87;58.83
44751;BME280;30477;48.224;11.470;2023-03-01T15:13:57;96059.84;;;4.91;58.76
44751;BME280;30477;48.224;11.470;2023-03-01T15:16:27;96066.66;;;4.92;58.56
44751;BME280;30477;48.224;11.470;2023-03-01T15:18:59;96063.13;;;4.93;58.26